createdAt,value
2017-01-02T00:00:39.381Z,0
2017-01-02T00:01:53.730Z,0
2017-01-02T00:03:07.965Z,0
2017-01-02T00:04:22.111Z,0
2017-01-02T00:05:36.796Z,0
2017-01-02T00:06:51.102Z,0
2017-01-02T00:08:05.282Z,0
2017-01-02T00:09:19.637Z,0
2017-01-02T00:10:33.968Z,0
2017-01-02T00:11:48.349Z,0
2017-01-02T00:13:02.731Z,0
2017-01-02T00:14:16.852Z,0
2017-01-02T00:15:31.144Z,0
2017-01-02T00:16:46.582Z,0
2017-01-02T00:18:01.110Z,0
2017-01-02T00:19:15.274Z,0
2017-01-02T00:20:29.565Z,0
2017-01-02T00:21:45.976Z,0
2017-01-02T00:23:00.125Z,0
2017-01-02T00:24:14.564Z,0
2017-01-02T00:25:29.597Z,0
2017-01-02T00:26:43.900Z,0
2017-01-02T00:27:58.001Z,0
2017-01-02T00:29:12.625Z,0
2017-01-02T00:30:27.131Z,0
2017-01-02T00:31:42.604Z,0
2017-01-02T00:32:56.700Z,0
2017-01-02T00:34:11.113Z,0
2017-01-02T00:35:25.331Z,0
2017-01-02T00:36:39.896Z,0
2017-01-02T00:37:54.191Z,0
2017-01-02T00:39:08.353Z,0
2017-01-02T00:40:22.582Z,0
2017-01-02T00:41:36.902Z,0
2017-01-02T00:42:51.478Z,0
2017-01-02T00:44:05.655Z,0
2017-01-02T00:45:19.833Z,0
2017-01-02T00:46:33.993Z,0
2017-01-02T00:47:48.130Z,0
2017-01-02T00:50:38.087Z,0
2017-01-02T00:51:52.315Z,0
2017-01-02T00:53:07.849Z,0
2017-01-02T00:54:22.402Z,0
2017-01-02T00:55:36.560Z,0
2017-01-02T00:56:50.722Z,0
2017-01-02T00:58:04.918Z,0
2017-01-02T00:59:19.133Z,0
2017-01-02T01:00:33.608Z,0
2017-01-02T01:01:47.838Z,0
2017-01-02T01:03:02.067Z,0
2017-01-02T01:04:16.289Z,0
2017-01-02T01:05:30.484Z,0
2017-01-02T01:06:45.294Z,0
2017-01-02T01:07:59.565Z,0
2017-01-02T01:09:13.690Z,0
2017-01-02T01:10:27.907Z,0
2017-01-02T01:11:42.010Z,0
2017-01-02T01:12:56.418Z,0
2017-01-02T01:14:10.650Z,0
2017-01-02T01:15:24.835Z,0
2017-01-02T01:16:38.965Z,0
2017-01-02T01:18:12.312Z,0
2017-01-02T01:19:28.129Z,0
2017-01-02T01:20:42.247Z,0
2017-01-02T01:21:56.371Z,0
2017-01-02T01:23:10.691Z,0
2017-01-02T01:24:24.952Z,0
2017-01-02T01:25:39.484Z,0
2017-01-02T01:26:53.639Z,0
2017-01-02T01:28:07.921Z,0
2017-01-02T01:29:22.117Z,0
2017-01-02T01:30:36.241Z,0
2017-01-02T01:31:50.666Z,0
2017-01-02T01:33:04.859Z,0
2017-01-02T01:34:19.113Z,0
2017-01-02T01:35:33.394Z,0
2017-01-02T01:36:47.577Z,0
2017-01-02T01:38:01.981Z,0
2017-01-02T01:39:16.196Z,0
2017-01-02T01:40:32.690Z,0
2017-01-02T01:41:46.883Z,0
2017-01-02T01:43:00.979Z,0
2017-01-02T01:44:30.082Z,0
2017-01-02T01:45:44.149Z,0
2017-01-02T01:46:58.232Z,0
2017-01-02T01:48:12.289Z,0
2017-01-02T01:49:26.628Z,0
2017-01-02T01:50:41.001Z,0
2017-01-02T01:51:55.194Z,0
2017-01-02T01:53:09.403Z,0
2017-01-02T01:54:24.782Z,0
2017-01-02T01:55:38.941Z,0
2017-01-02T01:56:53.508Z,0
2017-01-02T01:58:07.697Z,0
2017-01-02T01:59:23.672Z,0
2017-01-02T02:00:40.217Z,0
2017-01-02T02:01:55.054Z,0
2017-01-02T02:03:11.163Z,0
2017-01-02T02:04:29.417Z,0
2017-01-02T02:05:46.207Z,0
2017-01-02T02:07:06.663Z,0
2017-01-02T02:08:27.401Z,0
2017-01-02T02:09:46.282Z,0
2017-01-02T02:11:04.253Z,0
2017-01-02T02:12:23.808Z,0
2017-01-02T02:13:40.032Z,0
2017-01-02T02:14:56.878Z,0
2017-01-02T02:16:13.208Z,0
2017-01-02T02:17:31.965Z,0
2017-01-02T02:18:50.598Z,0
2017-01-02T02:20:08.690Z,0
2017-01-02T02:21:23.151Z,0
2017-01-02T02:22:37.360Z,0
2017-01-02T02:23:51.495Z,0
2017-01-02T02:25:06.905Z,0
2017-01-02T02:26:21.626Z,0
2017-01-02T02:27:35.830Z,0
2017-01-02T02:28:50.151Z,0
2017-01-02T02:30:04.437Z,0
2017-01-02T02:31:18.609Z,0
2017-01-02T02:32:33.193Z,0
2017-01-02T02:33:47.292Z,0
2017-01-02T02:35:02.582Z,0
2017-01-02T02:36:16.675Z,0
2017-01-02T02:37:31.607Z,0
2017-01-02T02:38:46.269Z,0
2017-01-02T02:40:00.484Z,0
2017-01-02T02:41:14.798Z,0
2017-01-02T02:42:29.064Z,0
2017-01-02T02:43:43.348Z,0
2017-01-02T02:44:57.956Z,0
2017-01-02T02:46:12.118Z,0
2017-01-02T02:47:26.271Z,0
2017-01-02T02:48:40.576Z,0
2017-01-02T02:49:54.915Z,0
2017-01-02T02:51:10.727Z,0
2017-01-02T02:52:24.953Z,0
2017-01-02T02:55:02.207Z,0
2017-01-02T02:56:16.808Z,0
2017-01-02T02:57:31.113Z,0
2017-01-02T02:58:45.280Z,0
2017-01-02T03:00:01.821Z,0
2017-01-02T03:01:15.910Z,0
2017-01-02T03:02:30.689Z,0
2017-01-02T03:03:44.819Z,0
2017-01-02T03:04:59.148Z,0
2017-01-02T03:06:13.404Z,0
2017-01-02T03:07:27.677Z,0
2017-01-02T03:08:42.131Z,0
2017-01-02T03:09:56.221Z,0
2017-01-02T03:11:10.387Z,0
2017-01-02T03:12:24.557Z,0
2017-01-02T03:14:36.347Z,0
2017-01-02T03:15:50.554Z,0
2017-01-02T03:17:04.814Z,0
2017-01-02T03:18:19.037Z,0
2017-01-02T03:19:33.611Z,0
2017-01-02T03:20:47.744Z,0
2017-01-02T03:22:02.004Z,0
2017-01-02T03:23:16.397Z,0
2017-01-02T03:24:30.493Z,0
2017-01-02T03:25:44.948Z,0
2017-01-02T03:26:59.151Z,0
2017-01-02T03:28:13.280Z,0
2017-01-02T03:29:27.686Z,0
2017-01-02T03:30:41.794Z,0
2017-01-02T03:31:57.643Z,0
2017-01-02T03:33:11.844Z,0
2017-01-02T03:34:26.028Z,0
2017-01-02T03:35:40.325Z,0
2017-01-02T03:36:54.723Z,0
2017-01-02T03:38:09.290Z,0
2017-01-02T03:39:23.451Z,0
2017-01-02T03:41:09.456Z,0
2017-01-02T03:43:56.946Z,0
2017-01-02T03:45:11.379Z,0
2017-01-02T03:46:25.496Z,0
2017-01-02T03:47:39.609Z,0
2017-01-02T03:48:53.730Z,0
2017-01-02T03:50:07.997Z,0
2017-01-02T03:51:22.416Z,0
2017-01-02T03:52:36.505Z,0
2017-01-02T03:53:50.681Z,0
2017-01-02T03:55:04.878Z,0
2017-01-02T03:56:19.100Z,0
2017-01-02T03:57:33.455Z,0
2017-01-02T03:58:47.583Z,0
2017-01-02T04:00:02.917Z,0
2017-01-02T04:01:17.002Z,0
2017-01-02T04:02:31.111Z,0
2017-01-02T04:03:45.463Z,0
2017-01-02T04:04:59.595Z,0
2017-01-02T04:06:13.687Z,0
2017-01-02T04:07:28.329Z,0
2017-01-02T04:08:42.626Z,0
2017-01-02T04:09:54.148Z,0
2017-01-02T04:11:07.188Z,0
2017-01-02T04:12:20.916Z,0
2017-01-02T04:13:37.111Z,0
2017-01-02T04:14:49.281Z,0
2017-01-02T04:16:01.564Z,0
2017-01-02T04:17:13.362Z,0
2017-01-02T04:18:24.903Z,0
2017-01-02T04:19:38.713Z,0
2017-01-02T04:20:50.290Z,0
2017-01-02T04:22:01.843Z,0
2017-01-02T04:23:13.713Z,0
2017-01-02T04:24:25.365Z,0
2017-01-02T04:25:37.072Z,0
2017-01-02T04:26:48.630Z,0
2017-01-02T04:28:00.287Z,0
2017-01-02T04:29:12.515Z,0
2017-01-02T04:30:24.049Z,0
2017-01-02T04:31:35.523Z,0
2017-01-02T04:32:47.134Z,0
2017-01-02T04:33:59.060Z,0
2017-01-02T04:35:11.101Z,0
2017-01-02T04:36:22.702Z,0
2017-01-02T04:37:34.625Z,0
2017-01-02T04:38:46.348Z,0
2017-01-02T04:39:57.977Z,0
2017-01-02T04:41:09.788Z,0
2017-01-02T04:42:21.284Z,0
2017-01-02T04:43:32.847Z,0
2017-01-02T04:44:44.314Z,0
2017-01-02T04:45:55.937Z,0
2017-01-02T04:47:07.798Z,0
2017-01-02T04:48:19.328Z,0
2017-01-02T04:49:31.011Z,0
2017-01-02T04:50:42.500Z,0
2017-01-02T04:51:54.033Z,0
2017-01-02T04:53:05.809Z,0
2017-01-02T04:54:17.338Z,0
2017-01-02T04:55:28.854Z,0
2017-01-02T04:56:40.332Z,0
2017-01-02T04:57:51.884Z,0
2017-01-02T04:59:03.658Z,0
2017-01-02T05:00:15.154Z,0
2017-01-02T05:01:26.704Z,0
2017-01-02T05:02:38.232Z,0
2017-01-02T05:03:49.771Z,0
2017-01-02T05:05:01.545Z,0
2017-01-02T05:06:13.029Z,0
2017-01-02T05:07:24.564Z,0
2017-01-02T05:08:36.229Z,0
2017-01-02T05:09:49.050Z,0
2017-01-02T05:11:00.866Z,0
2017-01-02T05:12:12.507Z,0
2017-01-02T05:13:23.984Z,0
2017-01-02T05:14:35.503Z,0
2017-01-02T05:15:47.035Z,0
2017-01-02T05:16:58.805Z,0
2017-01-02T05:18:10.315Z,0
2017-01-02T05:19:21.783Z,0
2017-01-02T05:20:35.939Z,0
2017-01-02T05:21:50.329Z,0
2017-01-02T05:23:04.611Z,0
2017-01-02T05:24:18.761Z,0
2017-01-02T05:25:32.819Z,0
2017-01-02T05:26:46.929Z,0
2017-01-02T05:27:58.406Z,0
2017-01-02T05:29:10.174Z,0
2017-01-02T05:30:21.807Z,0
2017-01-02T05:31:33.277Z,0
2017-01-02T05:32:44.863Z,0
2017-01-02T05:33:58.607Z,0
2017-01-02T05:35:10.383Z,0
2017-01-02T05:36:21.861Z,0
2017-01-02T05:37:34.056Z,0
2017-01-02T05:38:45.603Z,0
2017-01-02T05:39:57.084Z,0
2017-01-02T05:41:08.949Z,0
2017-01-02T05:42:20.476Z,0
2017-01-02T05:43:31.979Z,0
2017-01-02T05:44:43.539Z,0
2017-01-02T05:45:55.019Z,0
2017-01-02T05:47:06.784Z,0
2017-01-02T05:48:18.437Z,0
2017-01-02T05:49:30.062Z,0
2017-01-02T05:50:41.586Z,0
2017-01-02T05:52:37.731Z,0
2017-01-02T05:53:49.206Z,0
2017-01-02T05:55:00.739Z,0
2017-01-02T05:56:12.827Z,0
2017-01-02T05:57:24.478Z,0
2017-01-02T05:58:36.335Z,0
2017-01-02T05:59:47.818Z,0
2017-01-02T06:00:59.320Z,0
2017-01-02T06:02:10.944Z,0
2017-01-02T06:03:22.443Z,0
2017-01-02T06:04:34.368Z,0
2017-01-02T06:05:46.034Z,0
2017-01-02T06:06:57.522Z,0
2017-01-02T06:08:09.104Z,0
2017-01-02T06:09:20.639Z,0
2017-01-02T06:10:32.546Z,0
2017-01-02T06:11:44.043Z,0
2017-01-02T06:12:55.536Z,0
2017-01-02T06:14:07.075Z,0
2017-01-02T06:15:18.561Z,0
2017-01-02T06:16:30.463Z,0
2017-01-02T06:17:41.985Z,0
2017-01-02T06:18:53.597Z,0
2017-01-02T06:20:05.232Z,0
2017-01-02T06:21:16.750Z,0
2017-01-02T06:22:28.556Z,0
2017-01-02T06:23:40.048Z,0
2017-01-02T06:24:51.551Z,0
2017-01-02T06:26:03.084Z,0
2017-01-02T06:27:14.613Z,0
2017-01-02T06:28:26.566Z,0
2017-01-02T06:29:38.100Z,0
2017-01-02T06:30:49.672Z,0
2017-01-02T06:32:01.316Z,0
2017-01-02T06:33:13.073Z,0
2017-01-02T06:34:25.043Z,0
2017-01-02T06:35:36.587Z,0
2017-01-02T06:36:48.668Z,0
2017-01-02T06:38:00.264Z,0
2017-01-02T06:39:11.892Z,0
2017-01-02T06:40:23.802Z,0
2017-01-02T06:41:35.395Z,0
2017-01-02T06:42:46.980Z,0
2017-01-02T06:43:58.535Z,0
2017-01-02T06:45:10.004Z,0
2017-01-02T06:46:21.857Z,0
2017-01-02T06:47:33.370Z,0
2017-01-02T06:48:47.121Z,0
2017-01-02T06:49:58.851Z,0
2017-01-02T06:51:10.616Z,0
2017-01-02T06:52:22.650Z,0
2017-01-02T06:53:34.575Z,0
2017-01-02T06:54:46.205Z,0
2017-01-02T06:55:59.253Z,0
2017-01-02T06:57:10.785Z,0
2017-01-02T06:58:22.788Z,0
2017-01-02T06:59:34.380Z,0
2017-01-02T07:00:46.095Z,0
2017-01-02T07:01:57.844Z,0
2017-01-02T07:03:09.467Z,0
2017-01-02T07:04:21.509Z,0
2017-01-02T07:05:33.162Z,0
2017-01-02T07:06:44.839Z,0
2017-01-02T07:07:56.731Z,0
2017-01-02T07:09:08.327Z,0
2017-01-02T07:10:20.186Z,0
2017-01-02T07:11:31.797Z,0
2017-01-02T07:12:43.694Z,0
2017-01-02T07:13:55.333Z,0
2017-01-02T07:15:07.051Z,0
2017-01-02T07:16:18.816Z,0
2017-01-02T07:17:30.321Z,0
2017-01-02T07:18:41.982Z,0
2017-01-02T07:19:53.785Z,0
2017-01-02T07:21:05.370Z,0
2017-01-02T07:22:17.175Z,0
2017-01-02T07:23:29.267Z,0
2017-01-02T07:24:40.818Z,0
2017-01-02T07:25:52.513Z,0
2017-01-02T07:27:04.140Z,0
2017-01-02T07:28:16.015Z,0
2017-01-02T07:29:27.654Z,0
2017-01-02T07:30:39.344Z,0
2017-01-02T07:31:51.411Z,0
2017-01-02T07:33:03.022Z,0
2017-01-02T07:34:14.880Z,0
2017-01-02T07:36:17.631Z,0
2017-01-02T07:37:29.483Z,0
2017-01-02T07:38:41.089Z,0
2017-01-02T07:39:53.831Z,0
2017-01-02T07:41:05.467Z,0
2017-01-02T07:42:16.996Z,0
2017-01-02T07:43:28.617Z,0
2017-01-02T07:44:40.681Z,5
2017-01-02T07:45:53.853Z,5
2017-01-02T07:47:05.460Z,5
2017-01-02T07:48:17.111Z,5
2017-01-02T07:49:28.743Z,5
2017-01-02T07:50:40.291Z,5
2017-01-02T07:51:52.604Z,5
2017-01-02T07:53:04.435Z,5
2017-01-02T07:54:15.987Z,5
2017-01-02T07:55:27.636Z,5
2017-01-02T07:56:39.176Z,5
2017-01-02T07:57:50.992Z,5
2017-01-02T07:59:02.702Z,5
2017-01-02T08:00:14.323Z,5
2017-01-02T08:01:26.059Z,10
2017-01-02T08:02:38.176Z,5
2017-01-02T08:03:52.433Z,10
2017-01-02T08:05:03.916Z,10
2017-01-02T08:06:15.557Z,10
2017-01-02T08:07:26.791Z,10
2017-01-02T08:08:38.354Z,10
2017-01-02T08:09:50.224Z,10
2017-01-02T08:11:01.850Z,10
2017-01-02T08:12:13.416Z,10
2017-01-02T08:13:25.116Z,10
2017-01-02T08:14:36.724Z,10
2017-01-02T08:15:48.568Z,10
2017-01-02T08:17:00.178Z,10
2017-01-02T08:18:11.830Z,10
2017-01-02T08:19:23.523Z,15
2017-01-02T08:20:35.104Z,15
2017-01-02T08:21:47.055Z,15
2017-01-02T08:22:58.802Z,15
2017-01-02T08:24:10.377Z,20
2017-01-02T08:25:22.138Z,20
2017-01-02T08:26:33.857Z,20
2017-01-02T08:27:46.670Z,20
2017-01-02T08:28:58.206Z,25
2017-01-02T08:30:10.109Z,30
2017-01-02T08:31:22.500Z,30
2017-01-02T08:32:34.028Z,30
2017-01-02T08:33:45.818Z,30
2017-01-02T08:34:57.460Z,35
2017-01-02T08:36:09.007Z,35
2017-01-02T08:37:20.626Z,40
2017-01-02T08:38:32.127Z,40
2017-01-02T08:39:43.976Z,40
2017-01-02T08:40:55.583Z,40
2017-01-02T08:42:07.141Z,45
2017-01-02T08:43:18.836Z,45
2017-01-02T08:44:30.392Z,45
2017-01-02T08:45:42.363Z,50
2017-01-02T08:46:54.833Z,50
2017-01-02T08:48:06.537Z,50
2017-01-02T08:49:18.215Z,50
2017-01-02T08:50:29.881Z,50
2017-01-02T08:51:41.720Z,55
2017-01-02T08:52:53.295Z,55
2017-01-02T08:54:04.823Z,60
2017-01-02T08:55:17.586Z,65
2017-01-02T08:56:29.271Z,60
2017-01-02T08:57:41.127Z,65
2017-01-02T08:58:52.698Z,65
2017-01-02T09:00:04.196Z,65
2017-01-02T09:01:15.911Z,65
2017-01-02T09:02:27.404Z,60
2017-01-02T09:03:39.303Z,60
2017-01-02T09:04:51.487Z,65
2017-01-02T09:06:03.094Z,55
2017-01-02T09:07:14.736Z,60
2017-01-02T09:08:27.171Z,55
2017-01-02T09:09:39.198Z,55
2017-01-02T09:10:50.721Z,50
2017-01-02T09:12:02.244Z,55
2017-01-02T09:13:13.925Z,50
2017-01-02T09:14:25.411Z,55
2017-01-02T09:15:37.175Z,50
2017-01-02T09:16:48.702Z,50
2017-01-02T09:18:02.602Z,45
2017-01-02T09:19:15.400Z,50
2017-01-02T09:20:26.971Z,50
2017-01-02T09:21:38.844Z,50
2017-01-02T09:22:50.386Z,50
2017-01-02T09:24:02.015Z,50
2017-01-02T09:25:13.788Z,55
2017-01-02T09:26:25.448Z,60
2017-01-02T09:27:37.322Z,60
2017-01-02T09:28:48.850Z,60
2017-01-02T09:30:00.469Z,60
2017-01-02T09:31:12.252Z,60
2017-01-02T09:32:23.890Z,55
2017-01-02T09:33:35.762Z,55
2017-01-02T09:34:47.304Z,50
2017-01-02T09:35:58.828Z,50
2017-01-02T09:37:10.498Z,45
2017-01-02T09:38:22.100Z,45
2017-01-02T09:39:33.976Z,45
2017-01-02T09:40:45.512Z,45
2017-01-02T09:41:57.039Z,45
2017-01-02T09:43:08.816Z,50
2017-01-02T09:44:20.435Z,50
2017-01-02T09:45:32.421Z,55
2017-01-02T09:46:43.924Z,65
2017-01-02T09:47:55.435Z,70
2017-01-02T09:49:07.011Z,70
2017-01-02T09:50:18.523Z,70
2017-01-02T09:51:30.330Z,70
2017-01-02T09:52:41.949Z,70
2017-01-02T09:53:53.414Z,65
2017-01-02T09:55:06.153Z,60
2017-01-02T09:56:17.663Z,50
2017-01-02T09:57:29.574Z,45
2017-01-02T09:58:41.574Z,45
2017-01-02T09:59:53.324Z,45
2017-01-02T10:01:05.286Z,50
2017-01-02T10:02:16.817Z,55
2017-01-02T10:03:28.706Z,55
2017-01-02T10:04:40.326Z,55
2017-01-02T10:05:51.921Z,50
2017-01-02T10:07:03.558Z,55
2017-01-02T10:08:15.543Z,50
2017-01-02T10:09:27.374Z,50
2017-01-02T10:10:38.909Z,50
2017-01-02T10:11:50.407Z,60
2017-01-02T10:13:01.960Z,65
2017-01-02T10:14:13.528Z,65
2017-01-02T10:15:25.299Z,65
2017-01-02T10:16:36.820Z,65
2017-01-02T10:17:48.396Z,75
2017-01-02T10:19:00.029Z,80
2017-01-02T10:20:11.606Z,70
2017-01-02T10:21:23.506Z,75
2017-01-02T10:22:35.046Z,80
2017-01-02T10:23:46.580Z,80
2017-01-02T10:24:58.233Z,80
2017-01-02T10:26:09.898Z,70
2017-01-02T10:27:21.710Z,65
2017-01-02T10:28:33.235Z,65
2017-01-02T10:29:44.785Z,60
2017-01-02T10:30:56.410Z,60
2017-01-02T10:32:10.257Z,60
2017-01-02T10:33:22.799Z,55
2017-01-02T10:34:34.289Z,60
2017-01-02T10:35:45.832Z,60
2017-01-02T10:36:58.750Z,50
2017-01-02T10:38:13.312Z,50
2017-01-02T10:39:27.429Z,50
2017-01-02T10:40:41.569Z,50
2017-01-02T10:41:55.907Z,55
2017-01-02T10:43:10.241Z,60
2017-01-02T10:44:24.783Z,60
2017-01-02T10:45:39.057Z,55
2017-01-02T10:46:53.277Z,55
2017-01-02T10:48:07.507Z,65
2017-01-02T10:49:21.652Z,70
2017-01-02T10:50:36.148Z,75
2017-01-02T10:51:50.289Z,75
2017-01-02T10:53:04.514Z,70
2017-01-02T10:54:18.697Z,70
2017-01-02T10:55:32.858Z,70
2017-01-02T10:56:48.727Z,70
2017-01-02T10:58:02.935Z,75
2017-01-02T10:59:17.079Z,75
2017-01-02T11:00:31.201Z,80
2017-01-02T11:01:45.368Z,85
2017-01-02T11:03:00.141Z,85
2017-01-02T11:04:14.257Z,90
2017-01-02T11:05:28.376Z,95
2017-01-02T11:06:42.468Z,100
2017-01-02T11:07:57.939Z,100
2017-01-02T11:09:12.469Z,100
2017-01-02T11:10:26.546Z,105
2017-01-02T11:11:40.655Z,105
2017-01-02T11:12:54.724Z,105
2017-01-02T11:14:10.116Z,105
2017-01-02T11:15:24.605Z,100
2017-01-02T11:16:38.661Z,100
2017-01-02T11:17:52.746Z,95
2017-01-02T11:19:06.923Z,100
2017-01-02T11:20:20.979Z,100
2017-01-02T11:21:35.357Z,100
2017-01-02T11:22:49.534Z,100
2017-01-02T11:24:03.819Z,105
2017-01-02T11:25:17.962Z,105
2017-01-02T11:26:32.126Z,105
2017-01-02T11:27:46.498Z,110
2017-01-02T11:29:00.773Z,115
2017-01-02T11:30:14.900Z,115
2017-01-02T11:31:29.002Z,120
2017-01-02T11:32:43.099Z,115
2017-01-02T11:33:57.606Z,115
2017-01-02T11:35:11.860Z,120
2017-01-02T11:36:26.157Z,120
2017-01-02T11:37:40.413Z,125
2017-01-02T11:38:54.614Z,130
2017-01-02T11:40:09.681Z,130
2017-01-02T11:41:23.889Z,125
2017-01-02T11:42:38.061Z,130
2017-01-02T11:43:52.290Z,135
2017-01-02T11:45:06.579Z,140
2017-01-02T11:46:21.115Z,145
2017-01-02T11:47:35.275Z,140
2017-01-02T11:48:51.739Z,130
2017-01-02T11:50:05.856Z,120
2017-01-02T11:51:20.648Z,100
2017-01-02T11:52:35.294Z,95
2017-01-02T11:53:49.459Z,100
2017-01-02T11:55:03.724Z,100
2017-01-02T11:56:17.810Z,100
2017-01-02T11:57:32.033Z,105
2017-01-02T11:58:46.428Z,105
2017-01-02T12:00:00.494Z,105
2017-01-02T12:01:15.092Z,105
2017-01-02T12:02:29.200Z,105
2017-01-02T12:03:43.276Z,105
2017-01-02T12:04:57.633Z,105
2017-01-02T12:06:11.769Z,105
2017-01-02T12:07:25.977Z,105
2017-01-02T12:08:40.078Z,110
2017-01-02T12:09:54.162Z,105
2017-01-02T12:11:08.608Z,105
2017-01-02T12:12:22.737Z,110
2017-01-02T12:13:36.826Z,110
2017-01-02T12:16:20.493Z,110
2017-01-02T12:17:34.905Z,110
2017-01-02T12:18:49.094Z,110
2017-01-02T12:20:03.821Z,110
2017-01-02T12:21:18.153Z,115
2017-01-02T12:22:32.571Z,110
2017-01-02T12:23:46.793Z,115
2017-01-02T12:25:01.002Z,110
2017-01-02T12:26:15.213Z,110
2017-01-02T12:27:29.389Z,115
2017-01-02T12:28:43.924Z,115
2017-01-02T12:29:58.169Z,115
2017-01-02T12:31:12.523Z,115
2017-01-02T12:32:26.807Z,120
2017-01-02T12:33:41.053Z,120
2017-01-02T12:34:55.615Z,120
2017-01-02T12:36:09.814Z,120
2017-01-02T12:37:24.079Z,125
2017-01-02T12:38:38.298Z,130
2017-01-02T12:39:52.433Z,135
2017-01-02T12:41:07.045Z,145
2017-01-02T12:42:21.322Z,150
2017-01-02T12:43:35.492Z,155
2017-01-02T12:44:49.595Z,155
2017-01-02T12:46:03.704Z,155
2017-01-02T12:47:18.079Z,155
2017-01-02T12:48:32.271Z,150
2017-01-02T12:49:46.383Z,150
2017-01-02T12:51:01.116Z,145
2017-01-02T12:52:15.237Z,140
2017-01-02T12:53:29.697Z,140
2017-01-02T12:54:44.364Z,140
2017-01-02T12:55:58.902Z,140
2017-01-02T12:57:13.626Z,140
2017-01-02T12:58:28.579Z,140
2017-01-02T12:59:43.123Z,135
2017-01-02T13:00:57.291Z,135
2017-01-02T13:02:11.392Z,130
2017-01-02T13:03:25.528Z,125
2017-01-02T13:04:40.168Z,125
2017-01-02T13:05:54.580Z,115
2017-01-02T13:07:11.094Z,110
2017-01-02T13:08:25.396Z,110
2017-01-02T13:09:39.720Z,105
2017-01-02T13:10:53.891Z,100
2017-01-02T13:12:08.804Z,100
2017-01-02T13:13:23.272Z,95
2017-01-02T13:14:37.511Z,95
2017-01-02T13:15:51.668Z,95
2017-01-02T13:17:05.885Z,90
2017-01-02T13:18:20.404Z,90
2017-01-02T13:19:34.582Z,90
2017-01-02T13:20:48.817Z,90
2017-01-02T13:22:03.225Z,90
2017-01-02T13:23:17.382Z,90
2017-01-02T13:24:31.847Z,90
2017-01-02T13:25:46.149Z,90
2017-01-02T13:27:00.666Z,90
2017-01-02T13:28:14.847Z,90
2017-01-02T13:29:29.054Z,90
2017-01-02T13:30:43.525Z,85
2017-01-02T13:31:57.696Z,85
2017-01-02T13:33:11.846Z,85
2017-01-02T13:34:58.051Z,85
2017-01-02T13:36:13.001Z,85
2017-01-02T13:37:27.252Z,85
2017-01-02T13:38:41.595Z,80
2017-01-02T13:39:55.898Z,80
2017-01-02T13:41:10.078Z,75
2017-01-02T13:42:24.981Z,75
2017-01-02T13:43:39.104Z,75
2017-01-02T13:44:53.662Z,75
2017-01-02T13:46:08.021Z,75
2017-01-02T13:47:22.236Z,70
2017-01-02T13:48:36.714Z,70
2017-01-02T13:49:51.552Z,70
2017-01-02T13:51:05.710Z,75
2017-01-02T13:52:19.804Z,75
2017-01-02T13:53:33.918Z,75
2017-01-02T13:54:48.306Z,70
2017-01-02T13:56:03.649Z,70
2017-01-02T13:57:17.862Z,70
2017-01-02T13:58:32.074Z,70
2017-01-02T13:59:46.360Z,65
2017-01-02T14:01:00.870Z,65
2017-01-02T14:02:15.159Z,65
2017-01-02T14:03:29.349Z,60
2017-01-02T14:04:43.454Z,60
2017-01-02T14:05:57.752Z,60
2017-01-02T14:07:12.212Z,55
2017-01-02T14:08:26.375Z,50
2017-01-02T14:09:40.769Z,45
2017-01-02T14:10:55.141Z,40
2017-01-02T14:12:09.300Z,40
2017-01-02T14:13:24.007Z,40
2017-01-02T14:14:38.236Z,40
2017-01-02T14:15:52.482Z,45
2017-01-02T14:17:06.641Z,40
2017-01-02T14:18:20.777Z,40
2017-01-02T14:19:35.287Z,40
2017-01-02T14:20:49.389Z,45
2017-01-02T14:22:03.633Z,45
2017-01-02T14:23:17.996Z,55
2017-01-02T14:24:34.364Z,65
2017-01-02T14:25:48.712Z,70
2017-01-02T14:27:02.915Z,70
2017-01-02T14:28:16.999Z,70
2017-01-02T14:29:31.074Z,70
2017-01-02T14:30:45.171Z,70
2017-01-02T14:31:59.723Z,65
2017-01-02T14:33:13.873Z,65
2017-01-02T14:34:28.128Z,60
2017-01-02T14:35:42.341Z,60
2017-01-02T14:36:56.677Z,55
2017-01-02T14:38:11.059Z,55
2017-01-02T14:39:25.153Z,50
2017-01-02T14:40:39.352Z,45
2017-01-02T14:41:53.537Z,45
2017-01-02T14:43:07.765Z,40
2017-01-02T14:44:22.189Z,40
2017-01-02T14:45:36.261Z,35
2017-01-02T14:46:50.348Z,35
2017-01-02T14:48:04.461Z,35
2017-01-02T14:49:18.635Z,30
2017-01-02T14:50:33.033Z,30
2017-01-02T14:51:47.858Z,30
2017-01-02T14:53:02.043Z,25
2017-01-02T14:54:16.185Z,25
2017-01-02T14:55:30.960Z,25
2017-01-02T14:56:45.525Z,25
2017-01-02T14:57:59.687Z,20
2017-01-02T14:59:13.775Z,20
2017-01-02T15:00:27.886Z,20
2017-01-02T15:01:42.196Z,20
2017-01-02T15:02:58.436Z,20
2017-01-02T15:04:12.671Z,20
2017-01-02T15:05:27.023Z,20
2017-01-02T15:06:43.189Z,15
2017-01-02T15:07:58.994Z,15
2017-01-02T15:09:14.072Z,15
2017-01-02T15:10:28.169Z,15
2017-01-02T15:11:42.256Z,15
2017-01-02T15:12:57.599Z,15
2017-01-02T15:14:11.889Z,15
2017-01-02T15:15:26.359Z,15
2017-01-02T15:16:40.689Z,10
2017-01-02T15:17:54.811Z,10
2017-01-02T15:19:10.996Z,10
2017-01-02T15:20:25.088Z,5
2017-01-02T15:21:40.024Z,5
2017-01-02T15:22:54.352Z,5
2017-01-02T15:24:08.548Z,5
2017-01-02T15:25:22.654Z,0
2017-01-02T15:26:36.809Z,0
2017-01-02T15:27:51.704Z,0
2017-01-02T15:29:05.867Z,0
2017-01-02T15:30:20.389Z,0
2017-01-02T15:31:34.611Z,0
2017-01-02T15:32:48.954Z,0
2017-01-02T15:34:03.627Z,0
2017-01-02T15:35:17.777Z,0
2017-01-02T15:36:31.906Z,0
2017-01-02T15:37:46.005Z,0
2017-01-02T15:40:01.773Z,0
2017-01-02T15:41:15.848Z,0
2017-01-02T15:42:32.238Z,0
2017-01-02T15:43:46.829Z,0
2017-01-02T15:45:01.349Z,0
2017-01-02T15:46:15.620Z,0
2017-01-02T15:47:29.690Z,0
2017-01-02T15:48:44.252Z,0
2017-01-02T15:49:59.594Z,0
2017-01-02T15:51:14.103Z,0
2017-01-02T15:52:28.376Z,0
2017-01-02T15:53:42.438Z,0
2017-01-02T15:54:56.670Z,0
2017-01-02T15:56:10.887Z,0
2017-01-02T15:57:25.727Z,0
2017-01-02T15:58:40.034Z,0
2017-01-02T15:59:54.120Z,0
2017-01-02T16:01:08.717Z,0
2017-01-02T16:02:22.848Z,0
2017-01-02T16:03:37.215Z,0
2017-01-02T16:04:51.463Z,0
2017-01-02T16:06:05.653Z,0
2017-01-02T16:07:19.723Z,0
2017-01-02T16:08:33.883Z,0
2017-01-02T16:09:48.745Z,0
2017-01-02T16:11:03.038Z,0
2017-01-02T16:12:17.186Z,0
2017-01-02T16:13:31.370Z,0
2017-01-02T16:15:43.390Z,0
2017-01-02T16:16:57.824Z,0
2017-01-02T16:18:11.958Z,0
2017-01-02T16:19:26.252Z,0
2017-01-02T16:20:41.160Z,0
2017-01-02T16:21:55.721Z,0
2017-01-02T16:23:09.918Z,0
2017-01-02T16:24:24.508Z,0
2017-01-02T16:25:38.905Z,0
2017-01-02T16:26:54.245Z,0
2017-01-02T16:28:08.673Z,0
2017-01-02T16:29:22.946Z,0
2017-01-02T16:30:37.046Z,0
2017-01-02T16:31:51.466Z,0
2017-01-02T16:33:05.550Z,0
2017-01-02T16:34:19.952Z,0
2017-01-02T16:35:46.925Z,0
2017-01-02T16:37:01.170Z,0
2017-01-02T16:38:15.282Z,0
2017-01-02T16:39:29.726Z,0
2017-01-02T16:40:43.868Z,0
2017-01-02T16:41:58.079Z,0
2017-01-02T16:43:12.215Z,0
2017-01-02T16:44:26.585Z,0
2017-01-02T16:45:41.024Z,0
2017-01-02T16:46:56.516Z,0
2017-01-02T16:48:10.714Z,0
2017-01-02T16:49:25.610Z,0
2017-01-02T16:50:39.738Z,0
2017-01-02T16:51:54.191Z,0
2017-01-02T16:53:08.410Z,0
2017-01-02T16:54:22.761Z,0
2017-01-02T16:55:37.055Z,0
2017-01-02T16:56:51.327Z,0
2017-01-02T16:58:05.963Z,0
2017-01-02T16:59:20.123Z,0
2017-01-02T17:00:37.787Z,0
2017-01-02T17:01:52.034Z,0
2017-01-02T17:03:06.517Z,0
2017-01-02T17:04:21.078Z,0
2017-01-02T17:05:35.214Z,0
2017-01-02T17:08:19.143Z,0
2017-01-02T17:09:33.685Z,0
2017-01-02T17:10:47.829Z,0
2017-01-02T17:12:02.014Z,0
2017-01-02T17:13:16.235Z,0
2017-01-02T17:14:30.454Z,0
2017-01-02T17:15:46.195Z,0
2017-01-02T17:17:00.399Z,0
2017-01-02T17:18:14.621Z,0
2017-01-02T17:19:28.994Z,0
2017-01-02T17:20:43.168Z,0
2017-01-02T17:21:57.681Z,0
2017-01-02T17:23:11.914Z,0
2017-01-02T17:24:26.116Z,0
2017-01-02T17:25:59.976Z,0
2017-01-02T17:27:14.541Z,0
2017-01-02T17:28:31.575Z,0
2017-01-02T17:29:49.015Z,0
2017-01-02T17:31:09.936Z,0
2017-01-02T17:32:28.713Z,0
2017-01-02T17:33:49.348Z,0
2017-01-02T17:35:08.573Z,0
2017-01-02T17:36:24.785Z,0
2017-01-02T17:37:39.991Z,0
2017-01-02T17:38:55.404Z,0
2017-01-02T17:40:09.743Z,0
2017-01-02T17:41:25.085Z,0
2017-01-02T17:42:39.194Z,0
2017-01-02T17:43:54.589Z,0
2017-01-02T17:45:09.517Z,0
2017-01-02T17:46:24.008Z,0
2017-01-02T17:47:38.173Z,0
2017-01-02T17:48:52.329Z,0
2017-01-02T17:50:06.856Z,0
2017-01-02T17:51:21.238Z,0
2017-01-02T17:52:36.099Z,0
2017-01-02T17:53:50.834Z,0
2017-01-02T17:55:04.944Z,0
2017-01-02T17:56:20.850Z,0
2017-01-02T17:57:35.030Z,0
2017-01-02T17:58:49.284Z,0
2017-01-02T18:00:03.418Z,0
2017-01-02T18:01:18.101Z,0